Main page
METAR-TAF:

METAR-TAF

Airports :

Jammu Airport

Jammu, India

latitude: 32-41-21N, longitude: 74-50-15E, elevation: 314 m

METAR: missing

Time: 03:13 (21:43 UTC)

Forecast

The report was made 18 hours and 13 minutes ago, at 03:30 UTC
Forecast valid from 20 at 06 UTC to 20 at 18 UTC
Wind 12 kt from the Northeast
Visibility: 6000 m
Scattered clouds at a height of 2000 ft
Broken clouds at a height of 8000 ft
Temporary
from 20 at 08 UTC to 20 at 18 UTC
Wind 15 kt from the East/Northeast with gusts up to 25 kt
Visibility: 4000 m
thunderstorm, rain, mist

TAF: VIJU 200330Z 2006/2018 05012KT 6000 SCT020 BKN080 TEMPO 2008/2018 07015G25KT 4000 TSRABR FEW030TCU/CB

Weather observations and forecasts of more than 4000 airports (METAR and TAF reports).

The available stations are represented by yellow and red dots on the map.

Hover mouse over dot to see the name of the station.

Then click to see weather observations and forecasts.

To change the map : click on the green buttons with a black cross to zoom in, on the green button with a dash to zoom out, or on the green arrows for adjacent maps.


METAR-TAF: